createdAt,value
2018-06-24T00:00:39.469Z,3.20
2018-06-24T00:03:11.600Z,2.80
2018-06-24T00:05:43.649Z,2.80
2018-06-24T00:08:15.681Z,4.90
2018-06-24T00:10:47.768Z,4.30
2018-06-24T00:13:19.835Z,2.70
2018-06-24T00:15:51.923Z,4.90
2018-06-24T00:18:23.992Z,4.20
2018-06-24T00:20:56.166Z,3.60
2018-06-24T00:23:28.213Z,3.97
2018-06-24T00:26:00.288Z,2.77
2018-06-24T00:28:32.392Z,3.33
2018-06-24T00:31:04.479Z,3.50
2018-06-24T00:33:36.573Z,3.00
2018-06-24T00:36:08.675Z,2.63
2018-06-24T00:38:40.758Z,5.63
2018-06-24T00:41:12.792Z,3.47
2018-06-24T00:43:45.115Z,3.17
2018-06-24T00:46:17.165Z,3.93
2018-06-24T00:48:49.318Z,3.77
2018-06-24T00:51:21.383Z,5.60
2018-06-24T00:53:53.457Z,4.13
2018-06-24T00:56:25.590Z,5.80
2018-06-24T00:58:57.671Z,3.30
2018-06-24T01:01:29.740Z,5.13
2018-06-24T01:04:01.804Z,6.30
2018-06-24T01:06:33.877Z,5.73
2018-06-24T01:09:06.264Z,4.53
2018-06-24T01:11:38.356Z,5.50
2018-06-24T01:14:10.411Z,9.53
2018-06-24T01:16:42.459Z,7.67
2018-06-24T01:19:14.575Z,6.40
2018-06-24T01:21:46.645Z,7.40
2018-06-24T01:24:18.743Z,5.80
2018-06-24T01:26:50.836Z,4.53
2018-06-24T01:29:22.907Z,6.20
2018-06-24T01:31:54.967Z,4.43
2018-06-24T01:34:27.067Z,3.80
2018-06-24T01:36:59.234Z,6.07
2018-06-24T01:39:31.254Z,4.10
2018-06-24T01:42:03.336Z,5.13
2018-06-24T01:44:35.454Z,5.37
2018-06-24T01:47:07.559Z,4.87
2018-06-24T01:49:39.667Z,5.27
2018-06-24T01:52:11.735Z,4.10
2018-06-24T01:54:43.807Z,3.47
2018-06-24T01:57:15.901Z,6.23
2018-06-24T01:59:47.940Z,4.43
2018-06-24T02:02:20.007Z,3.37
2018-06-24T02:04:52.065Z,5.17
2018-06-24T02:07:24.126Z,3.70
2018-06-24T02:09:56.169Z,4.80
2018-06-24T02:12:28.244Z,4.07
2018-06-24T02:15:00.330Z,4.10
2018-06-24T02:17:32.399Z,5.47
2018-06-24T02:20:04.462Z,4.13
2018-06-24T02:22:36.537Z,3.77
2018-06-24T02:25:08.736Z,6.90
2018-06-24T02:27:40.823Z,4.93
2018-06-24T02:30:12.852Z,3.50
2018-06-24T02:32:44.968Z,4.33
2018-06-24T02:35:17.006Z,6.47
2018-06-24T02:37:49.119Z,8.03
2018-06-24T02:40:21.233Z,4.17
2018-06-24T02:42:53.404Z,4.20
2018-06-24T02:45:25.471Z,3.80
2018-06-24T02:47:57.614Z,5.37
2018-06-24T02:50:29.695Z,6.33
2018-06-24T02:53:01.757Z,4.87
2018-06-24T02:55:33.806Z,6.30
2018-06-24T02:58:05.903Z,3.73
2018-06-24T03:00:38.000Z,6.00
2018-06-24T03:03:10.091Z,6.00
2018-06-24T03:05:42.182Z,4.83
2018-06-24T03:08:14.302Z,6.97
2018-06-24T03:10:46.435Z,5.93
2018-06-24T03:13:18.497Z,4.50
2018-06-24T03:15:50.601Z,4.47
2018-06-24T03:18:22.644Z,5.87
2018-06-24T03:20:54.690Z,5.07
2018-06-24T03:23:26.802Z,5.80
2018-06-24T03:25:58.871Z,6.10
2018-06-24T03:28:30.936Z,6.83
2018-06-24T03:31:03.003Z,5.10
2018-06-24T03:33:35.084Z,6.22
2018-06-24T03:36:07.187Z,6.50
2018-06-24T03:38:39.285Z,7.70
2018-06-24T03:41:11.363Z,5.30
2018-06-24T03:43:43.529Z,6.10
2018-06-24T03:46:15.597Z,5.42
2018-06-24T03:48:47.671Z,5.97
2018-06-24T03:51:19.733Z,7.28
2018-06-24T03:53:51.802Z,5.45
2018-06-24T03:56:23.871Z,5.83
2018-06-24T03:58:55.962Z,6.33
2018-06-24T04:01:28.549Z,5.57
2018-06-24T04:04:00.646Z,8.17
2018-06-24T04:06:32.737Z,7.40
2018-06-24T04:09:06.077Z,8.30
2018-06-24T04:11:38.144Z,5.77
2018-06-24T04:14:10.205Z,8.30
2018-06-24T04:16:42.277Z,5.73
2018-06-24T04:19:14.381Z,8.53
2018-06-24T04:21:46.429Z,10.47
2018-06-24T04:24:18.515Z,5.83
2018-06-24T04:26:50.602Z,5.60
2018-06-24T04:29:22.722Z,10.33
2018-06-24T04:31:54.760Z,5.83
2018-06-24T04:34:26.831Z,5.93
2018-06-24T04:36:58.922Z,5.93
2018-06-24T04:39:30.987Z,5.40
2018-06-24T04:42:03.023Z,6.47
2018-06-24T04:44:35.090Z,6.17
2018-06-24T04:47:07.163Z,6.87
2018-06-24T04:49:39.244Z,6.60
2018-06-24T04:52:11.344Z,6.30
2018-06-24T04:54:43.412Z,8.60
2018-06-24T04:57:15.503Z,5.43
2018-06-24T04:59:47.596Z,6.60
2018-06-24T05:02:19.675Z,10.50
2018-06-24T05:04:51.729Z,9.23
2018-06-24T05:07:23.804Z,6.17
2018-06-24T05:09:55.880Z,6.20
2018-06-24T05:12:27.944Z,12.17
2018-06-24T05:14:59.996Z,7.63
2018-06-24T05:17:32.037Z,5.50
2018-06-24T05:20:04.107Z,6.77
2018-06-24T05:22:36.188Z,8.33
2018-06-24T05:25:08.509Z,9.70
2018-06-24T05:27:40.675Z,6.37
2018-06-24T05:30:12.744Z,6.13
2018-06-24T05:32:44.811Z,6.23
2018-06-24T05:35:16.881Z,7.77
2018-06-24T05:37:48.980Z,5.90
2018-06-24T05:40:21.078Z,12.83
2018-06-24T05:42:53.175Z,7.03
2018-06-24T05:45:25.261Z,10.23
2018-06-24T05:47:57.320Z,6.70
2018-06-24T05:50:29.480Z,6.37
2018-06-24T05:53:01.630Z,6.30
2018-06-24T05:55:33.749Z,7.60
2018-06-24T05:58:05.879Z,6.67
2018-06-24T06:00:37.984Z,7.70
2018-06-24T06:03:10.149Z,6.27
2018-06-24T06:05:42.224Z,10.07
2018-06-24T06:08:14.334Z,6.10
2018-06-24T06:10:46.465Z,5.90
2018-06-24T06:13:18.543Z,8.33
2018-06-24T06:15:50.616Z,8.43
2018-06-24T06:18:22.704Z,6.70
2018-06-24T06:20:55.247Z,10.23
2018-06-24T06:23:27.343Z,6.77
2018-06-24T06:25:59.464Z,6.00
2018-06-24T06:28:32.270Z,5.00
2018-06-24T06:31:04.416Z,6.17
2018-06-24T06:33:36.490Z,5.83
2018-06-24T06:36:08.648Z,7.40
2018-06-24T06:38:40.705Z,6.30
2018-06-24T06:41:12.816Z,6.93
2018-06-24T06:43:44.867Z,5.00
2018-06-24T06:46:16.937Z,8.57
2018-06-24T06:48:48.995Z,4.70
2018-06-24T06:51:21.070Z,6.83
2018-06-24T06:53:53.103Z,6.83
2018-06-24T06:56:25.197Z,6.23
2018-06-24T06:58:57.228Z,5.67
2018-06-24T07:01:29.307Z,6.13
2018-06-24T07:04:01.364Z,3.83
2018-06-24T07:06:33.424Z,6.90
2018-06-24T07:09:06.960Z,4.50
2018-06-24T07:11:39.375Z,9.10
2018-06-24T07:14:11.476Z,5.07
2018-06-24T07:16:43.521Z,5.20
2018-06-24T07:19:15.596Z,5.00
2018-06-24T07:21:47.722Z,6.33
2018-06-24T07:24:19.824Z,7.90
2018-06-24T07:26:51.874Z,5.50
2018-06-24T07:29:23.938Z,5.80
2018-06-24T07:31:56.096Z,5.73
2018-06-24T07:34:28.172Z,5.70
2018-06-24T07:37:00.224Z,5.53
2018-06-24T07:39:32.305Z,4.20
2018-06-24T07:42:04.378Z,4.60
2018-06-24T07:44:36.460Z,6.10
2018-06-24T07:47:08.615Z,6.30
2018-06-24T07:49:40.676Z,4.03
2018-06-24T07:52:12.773Z,4.30
2018-06-24T07:54:44.812Z,3.60
2018-06-24T07:57:16.939Z,3.03
2018-06-24T07:59:49.535Z,2.33
2018-06-24T08:02:21.615Z,3.60
2018-06-24T08:04:53.732Z,3.77
2018-06-24T08:07:25.899Z,3.60
2018-06-24T08:09:57.991Z,3.80
2018-06-24T08:12:30.914Z,4.43
2018-06-24T08:15:03.050Z,2.90
2018-06-24T08:17:35.126Z,4.10
2018-06-24T08:20:07.241Z,2.07
2018-06-24T08:22:39.385Z,3.70
2018-06-24T08:25:11.420Z,2.93
2018-06-24T08:27:43.506Z,5.80
2018-06-24T08:30:15.595Z,3.40
2018-06-24T08:32:47.711Z,2.67
2018-06-24T08:35:21.028Z,2.67
2018-06-24T08:37:53.119Z,2.90
2018-06-24T08:40:25.374Z,2.13
2018-06-24T08:42:57.509Z,2.10
2018-06-24T08:45:29.630Z,2.80
2018-06-24T08:48:01.749Z,4.63
2018-06-24T08:50:33.836Z,3.50
2018-06-24T08:53:05.984Z,3.10
2018-06-24T08:55:38.116Z,2.63
2018-06-24T08:58:10.223Z,1.53
2018-06-24T09:00:42.381Z,1.93
2018-06-24T09:03:14.461Z,2.63
2018-06-24T09:05:46.537Z,1.87
2018-06-24T09:08:18.598Z,1.97
2018-06-24T09:10:50.710Z,2.80
2018-06-24T09:13:22.829Z,1.70
2018-06-24T09:15:54.965Z,2.87
2018-06-24T09:18:26.984Z,4.20
2018-06-24T09:20:59.079Z,2.40
2018-06-24T09:23:31.222Z,1.93
2018-06-24T09:26:03.260Z,1.30
2018-06-24T09:28:35.387Z,1.50
2018-06-24T09:31:07.484Z,1.73
2018-06-24T09:33:39.590Z,3.10
2018-06-24T09:36:11.707Z,1.63
2018-06-24T09:38:43.801Z,2.37
2018-06-24T09:41:15.916Z,2.40
2018-06-24T09:43:47.977Z,2.80
2018-06-24T09:46:20.034Z,4.53
2018-06-24T09:48:52.251Z,1.50
2018-06-24T09:51:24.328Z,1.20
2018-06-24T09:53:56.415Z,2.50
2018-06-24T09:56:28.685Z,2.57
2018-06-24T09:59:00.763Z,2.30
2018-06-24T10:01:32.904Z,1.50
2018-06-24T10:04:05.223Z,1.50
2018-06-24T10:06:37.288Z,2.60
2018-06-24T10:09:10.405Z,1.47
2018-06-24T10:11:42.464Z,1.80
2018-06-24T10:14:14.502Z,1.50
2018-06-24T10:16:46.573Z,2.23
2018-06-24T10:19:18.663Z,2.20
2018-06-24T10:21:50.728Z,1.47
2018-06-24T10:24:22.832Z,1.83
2018-06-24T10:26:54.919Z,1.60
2018-06-24T10:29:27.041Z,2.20
2018-06-24T10:31:59.102Z,1.60
2018-06-24T10:34:31.175Z,1.40
2018-06-24T10:37:03.308Z,2.37
2018-06-24T10:39:35.373Z,1.47
2018-06-24T10:42:07.528Z,2.50
2018-06-24T10:44:39.664Z,1.83
2018-06-24T10:47:11.793Z,3.77
2018-06-24T10:49:43.842Z,1.33
2018-06-24T10:52:15.927Z,2.73
2018-06-24T10:54:47.984Z,2.43
2018-06-24T10:57:20.089Z,1.77
2018-06-24T10:59:52.235Z,1.50
2018-06-24T11:02:24.293Z,2.43
2018-06-24T11:04:56.400Z,1.77
2018-06-24T11:07:28.480Z,1.90
2018-06-24T11:10:00.592Z,3.17
2018-06-24T11:12:32.695Z,1.80
2018-06-24T11:15:04.928Z,1.20
2018-06-24T11:17:37.062Z,1.70
2018-06-24T11:20:09.152Z,2.00
2018-06-24T11:22:41.331Z,1.40
2018-06-24T11:25:13.444Z,1.30
2018-06-24T11:27:45.520Z,1.40
2018-06-24T11:30:17.585Z,1.77
2018-06-24T11:32:49.647Z,1.70
2018-06-24T11:35:21.713Z,1.40
2018-06-24T11:37:53.784Z,2.00
2018-06-24T11:40:25.892Z,1.33
2018-06-24T11:42:58.150Z,1.10
2018-06-24T11:45:31.187Z,2.20
2018-06-24T11:48:03.289Z,2.70
2018-06-24T11:50:35.404Z,1.50
2018-06-24T11:53:07.481Z,1.63
2018-06-24T11:55:39.617Z,2.03
2018-06-24T11:58:11.720Z,1.20
2018-06-24T12:00:43.807Z,2.17
2018-06-24T12:03:15.884Z,1.30
2018-06-24T12:05:48.079Z,1.63
2018-06-24T12:08:20.245Z,1.97
2018-06-24T12:10:52.386Z,1.30
2018-06-24T12:13:24.452Z,1.53
2018-06-24T12:15:56.602Z,1.00
2018-06-24T12:18:28.664Z,3.13
2018-06-24T12:21:00.733Z,1.60
2018-06-24T12:23:32.827Z,1.77
2018-06-24T12:26:04.932Z,1.37
2018-06-24T12:28:36.975Z,1.83
2018-06-24T12:31:09.040Z,1.40
2018-06-24T12:33:41.110Z,1.07
2018-06-24T12:36:13.193Z,1.27
2018-06-24T12:38:45.254Z,1.30
2018-06-24T12:41:17.455Z,1.87
2018-06-24T12:43:49.667Z,1.83
2018-06-24T12:46:21.774Z,1.50
2018-06-24T12:48:53.860Z,1.60
2018-06-24T12:51:25.964Z,1.23
2018-06-24T12:53:59.630Z,1.80
2018-06-24T12:56:32.262Z,1.73
2018-06-24T12:59:04.720Z,2.70
2018-06-24T13:01:36.610Z,1.93
2018-06-24T13:04:08.676Z,1.50
2018-06-24T13:06:40.756Z,1.63
2018-06-24T13:09:12.869Z,1.50
2018-06-24T13:11:45.136Z,2.10
2018-06-24T13:14:17.303Z,1.60
2018-06-24T13:16:49.391Z,2.20
2018-06-24T13:19:21.526Z,1.60
2018-06-24T13:21:53.648Z,1.37
2018-06-24T13:24:25.765Z,1.60
2018-06-24T13:26:57.866Z,3.23
2018-06-24T13:29:29.965Z,1.80
2018-06-24T13:32:02.081Z,1.90
2018-06-24T13:34:34.157Z,3.20
2018-06-24T13:37:06.279Z,2.33
2018-06-24T13:39:38.357Z,2.73
2018-06-24T13:42:10.519Z,3.57
2018-06-24T13:44:42.605Z,2.07
2018-06-24T13:47:14.796Z,2.57
2018-06-24T13:49:46.859Z,2.70
2018-06-24T13:52:18.941Z,5.40
2018-06-24T13:54:51.120Z,1.90
2018-06-24T13:57:23.223Z,2.07
2018-06-24T13:59:55.288Z,3.93
2018-06-24T14:02:27.395Z,2.07
2018-06-24T14:04:59.494Z,2.80
2018-06-24T14:07:31.640Z,2.23
2018-06-24T14:10:03.764Z,1.80
2018-06-24T14:12:35.867Z,2.40
2018-06-24T14:15:07.944Z,2.17
2018-06-24T14:17:40.011Z,1.83
2018-06-24T14:20:12.105Z,1.83
2018-06-24T14:22:44.245Z,3.00
2018-06-24T14:25:16.299Z,1.73
2018-06-24T14:27:48.391Z,2.47
2018-06-24T14:30:20.486Z,1.77
2018-06-24T14:32:52.579Z,1.93
2018-06-24T14:35:24.715Z,2.00
2018-06-24T14:37:56.885Z,2.97
2018-06-24T14:40:29.095Z,2.03
2018-06-24T14:43:01.623Z,3.20
2018-06-24T14:45:33.752Z,3.00
2018-06-24T14:48:06.390Z,2.63
2018-06-24T14:50:38.553Z,3.77
2018-06-24T14:53:10.743Z,1.77
2018-06-24T14:55:42.967Z,2.73
2018-06-24T14:58:15.208Z,4.93
2018-06-24T15:00:47.682Z,3.30
2018-06-24T15:03:19.745Z,3.60
2018-06-24T15:05:52.224Z,2.77
2018-06-24T15:08:24.387Z,2.07
2018-06-24T15:10:56.480Z,3.57
2018-06-24T15:13:28.574Z,3.00
2018-06-24T15:16:00.702Z,2.13
2018-06-24T15:18:32.816Z,2.93
2018-06-24T15:21:04.911Z,2.77
2018-06-24T15:23:37.037Z,2.50
2018-06-24T15:26:09.531Z,3.33
2018-06-24T15:28:41.676Z,3.83
2018-06-24T15:31:13.799Z,4.40
2018-06-24T15:33:45.900Z,4.10
2018-06-24T15:36:17.990Z,2.70
2018-06-24T15:38:50.072Z,2.80
2018-06-24T15:41:22.226Z,1.93
2018-06-24T15:43:54.314Z,2.10
2018-06-24T15:46:26.442Z,6.40
2018-06-24T15:48:58.546Z,4.90
2018-06-24T15:51:30.604Z,3.80
2018-06-24T15:54:02.709Z,2.40
2018-06-24T15:56:34.857Z,2.53
2018-06-24T15:59:06.931Z,2.17
2018-06-24T16:01:39.096Z,2.47
2018-06-24T16:04:11.207Z,2.67
2018-06-24T16:06:43.556Z,2.47
2018-06-24T16:09:15.875Z,2.47
2018-06-24T16:11:47.959Z,2.03
2018-06-24T16:14:20.073Z,2.70
2018-06-24T16:16:52.447Z,2.30
2018-06-24T16:19:24.788Z,4.50
2018-06-24T16:21:56.853Z,3.13
2018-06-24T16:24:28.907Z,3.10
2018-06-24T16:27:01.032Z,2.00
2018-06-24T16:29:33.146Z,2.67
2018-06-24T16:32:05.464Z,3.50
2018-06-24T16:34:37.681Z,2.67
2018-06-24T16:37:09.757Z,2.70
2018-06-24T16:39:41.855Z,4.20
2018-06-24T16:42:13.989Z,3.20
2018-06-24T16:44:46.122Z,2.57
2018-06-24T16:47:18.181Z,3.70
2018-06-24T16:49:50.330Z,4.63
2018-06-24T16:52:22.405Z,2.73
2018-06-24T16:54:54.479Z,2.53
2018-06-24T16:57:26.574Z,2.50
2018-06-24T16:59:58.666Z,3.00
2018-06-24T17:02:30.911Z,2.87
2018-06-24T17:05:03.100Z,2.17
2018-06-24T17:07:41.812Z,2.93
2018-06-24T17:10:13.945Z,2.57
2018-06-24T17:12:46.020Z,2.30
2018-06-24T17:15:18.090Z,2.20
2018-06-24T17:17:50.218Z,3.93
2018-06-24T17:20:22.497Z,2.40
2018-06-24T17:22:55.266Z,2.27
2018-06-24T17:25:27.398Z,3.23
2018-06-24T17:27:59.678Z,5.57
2018-06-24T17:30:32.187Z,3.80
2018-06-24T17:33:04.399Z,3.27
2018-06-24T17:35:36.507Z,2.03
2018-06-24T17:38:08.620Z,11.27
2018-06-24T17:40:43.284Z,2.93
2018-06-24T17:43:17.984Z,3.30
2018-06-24T17:45:50.187Z,3.80
2018-06-24T17:48:22.335Z,2.50
2018-06-24T17:50:54.509Z,3.13
2018-06-24T17:53:26.664Z,5.23
2018-06-24T17:55:58.762Z,2.70
2018-06-24T17:58:30.827Z,2.50
2018-06-24T18:01:03.314Z,3.73
2018-06-24T18:03:35.395Z,2.50
2018-06-24T18:06:07.508Z,2.93
2018-06-24T18:08:39.633Z,4.33
2018-06-24T18:11:11.750Z,2.30
2018-06-24T18:13:43.951Z,1.97
2018-06-24T18:16:16.287Z,2.80
2018-06-24T18:18:48.449Z,2.27
2018-06-24T18:21:20.580Z,5.23
2018-06-24T18:23:52.697Z,1.80
2018-06-24T18:26:25.116Z,3.70
2018-06-24T18:28:57.288Z,1.93
2018-06-24T18:31:30.219Z,3.43
2018-06-24T18:34:02.327Z,2.37
2018-06-24T18:36:34.417Z,2.17
2018-06-24T18:39:07.620Z,2.00
2018-06-24T18:41:39.715Z,2.63
2018-06-24T18:44:11.899Z,6.00
2018-06-24T18:46:44.067Z,2.10
2018-06-24T18:49:16.190Z,8.30
2018-06-24T18:51:50.378Z,3.67
2018-06-24T18:54:22.490Z,3.63
2018-06-24T18:56:54.667Z,2.40
2018-06-24T18:59:26.751Z,2.80
2018-06-24T19:01:58.931Z,3.73
2018-06-24T19:04:31.008Z,2.00
2018-06-24T19:07:03.188Z,2.40
2018-06-24T19:09:35.428Z,2.40
2018-06-24T19:12:07.547Z,2.80
2018-06-24T19:14:39.707Z,3.60
2018-06-24T19:17:12.155Z,2.03
2018-06-24T19:19:44.240Z,2.00
2018-06-24T19:22:16.368Z,2.80
2018-06-24T19:24:48.523Z,3.57
2018-06-24T19:27:20.627Z,2.20
2018-06-24T19:29:52.736Z,2.70
2018-06-24T19:32:26.020Z,3.07
2018-06-24T19:34:58.207Z,4.43
2018-06-24T19:37:30.255Z,2.33
2018-06-24T19:40:02.303Z,5.13
2018-06-24T19:42:34.342Z,6.30
2018-06-24T19:45:06.452Z,3.03
2018-06-24T19:47:38.708Z,2.90
2018-06-24T19:50:10.879Z,2.73
2018-06-24T19:52:42.948Z,2.90
2018-06-24T19:55:15.071Z,2.60
2018-06-24T19:57:47.141Z,3.20
2018-06-24T20:00:19.767Z,2.57
2018-06-24T20:02:51.976Z,2.47
2018-06-24T20:05:24.051Z,2.47
2018-06-24T20:07:56.067Z,3.03
2018-06-24T20:10:28.164Z,2.57
2018-06-24T20:13:00.280Z,3.13
2018-06-24T20:15:32.340Z,3.43
2018-06-24T20:18:04.523Z,2.80
2018-06-24T20:20:36.676Z,4.93
2018-06-24T20:23:08.760Z,3.00
2018-06-24T20:25:40.880Z,2.63
2018-06-24T20:28:12.935Z,3.30
2018-06-24T20:30:45.220Z,2.83
2018-06-24T20:33:17.286Z,3.23
2018-06-24T20:35:49.335Z,3.40
2018-06-24T20:38:21.428Z,5.10
2018-06-24T20:40:53.543Z,4.97
2018-06-24T20:43:25.638Z,2.83
2018-06-24T20:45:57.796Z,3.10
2018-06-24T20:48:29.980Z,3.80
2018-06-24T20:51:02.091Z,3.90
2018-06-24T20:53:34.175Z,3.20
2018-06-24T20:56:06.354Z,3.30
2018-06-24T20:58:38.494Z,2.77
2018-06-24T21:01:10.693Z,3.27
2018-06-24T21:03:42.718Z,2.97
2018-06-24T21:06:14.852Z,3.00
2018-06-24T21:08:46.956Z,3.33
2018-06-24T21:11:19.134Z,3.60
2018-06-24T21:13:51.245Z,3.13
2018-06-24T21:16:23.617Z,3.23
2018-06-24T21:18:55.724Z,2.90
2018-06-24T21:21:27.855Z,4.00
2018-06-24T21:23:59.964Z,3.67
2018-06-24T21:26:32.021Z,3.53
2018-06-24T21:29:04.222Z,2.73
2018-06-24T21:31:36.504Z,2.60
2018-06-24T21:34:08.569Z,2.30
2018-06-24T21:36:40.669Z,3.57
2018-06-24T21:39:12.769Z,2.80
2018-06-24T21:41:44.884Z,3.70
2018-06-24T21:44:16.931Z,4.63
2018-06-24T21:46:50.251Z,2.77
2018-06-24T21:49:22.497Z,2.93
2018-06-24T21:51:55.473Z,2.43
2018-06-24T21:54:27.635Z,2.43
2018-06-24T21:56:59.746Z,2.67
2018-06-24T21:59:32.042Z,3.20
2018-06-24T22:02:04.728Z,3.83
2018-06-24T22:04:36.859Z,2.63
2018-06-24T22:07:08.917Z,4.13
2018-06-24T22:09:40.986Z,4.00
2018-06-24T22:12:13.048Z,2.97
2018-06-24T22:14:45.130Z,4.47
2018-06-24T22:17:17.253Z,3.13
2018-06-24T22:19:49.313Z,4.70
2018-06-24T22:22:21.469Z,2.40
2018-06-24T22:24:53.700Z,3.83
2018-06-24T22:27:25.751Z,2.73
2018-06-24T22:29:57.828Z,3.50
2018-06-24T22:32:29.879Z,4.27
2018-06-24T22:35:01.966Z,2.73
2018-06-24T22:37:34.104Z,4.00
2018-06-24T22:40:06.197Z,3.23
2018-06-24T22:42:38.362Z,3.43
2018-06-24T22:45:10.468Z,3.33
2018-06-24T22:47:42.541Z,5.30
2018-06-24T22:50:14.679Z,3.50
2018-06-24T22:52:46.785Z,4.20
2018-06-24T22:55:18.893Z,3.67
2018-06-24T22:57:51.016Z,3.93
2018-06-24T23:00:23.124Z,4.00
2018-06-24T23:03:02.140Z,4.20
2018-06-24T23:05:34.183Z,3.85
2018-06-24T23:08:06.320Z,4.17
2018-06-24T23:10:38.443Z,3.90
2018-06-24T23:13:10.572Z,3.65
2018-06-24T23:15:42.645Z,3.90
2018-06-24T23:18:14.728Z,4.70
2018-06-24T23:20:46.830Z,4.25
2018-06-24T23:23:18.972Z,4.58
2018-06-24T23:25:51.095Z,4.70
2018-06-24T23:28:23.210Z,3.60
2018-06-24T23:30:55.360Z,4.62
2018-06-24T23:33:27.461Z,4.22
2018-06-24T23:35:59.600Z,5.10
2018-06-24T23:38:31.740Z,4.67
2018-06-24T23:41:03.832Z,6.95
2018-06-24T23:43:35.935Z,3.22
2018-06-24T23:46:08.163Z,5.08
2018-06-24T23:48:40.492Z,3.60
2018-06-24T23:51:12.632Z,4.78
2018-06-24T23:53:44.751Z,3.70
2018-06-24T23:56:16.890Z,6.12
2018-06-24T23:58:49.048Z,3.58
